sensor_id;sensor_type;location;lat;lon;timestamp;temperature;humidity
2202;DHT22;1107;48.654;9.250;2022-11-04T00:01:43;10.40;99.90
2202;DHT22;1107;48.654;9.250;2022-11-04T00:04:12;10.40;99.90
2202;DHT22;1107;48.654;9.250;2022-11-04T00:06:40;10.40;99.90
2202;DHT22;1107;48.654;9.250;2022-11-04T00:09:11;10.40;99.90
2202;DHT22;1107;48.654;9.250;2022-11-04T00:11:39;10.40;99.90
2202;DHT22;1107;48.654;9.250;2022-11-04T00:14:23;10.40;99.90
2202;DHT22;1107;48.654;9.250;2022-11-04T00:16:50;10.40;99.90
2202;DHT22;1107;48.654;9.250;2022-11-04T00:19:36;10.40;99.90
2202;DHT22;1107;48.654;9.250;2022-11-04T00:22:17;10.30;99.90
2202;DHT22;1107;48.654;9.250;2022-11-04T00:25:01;10.30;99.90
2202;DHT22;1107;48.654;9.250;2022-11-04T00:27:45;10.30;99.90
2202;DHT22;1107;48.654;9.250;2022-11-04T00:30:30;10.30;99.90
2202;DHT22;1107;48.654;9.250;2022-11-04T00:32:57;10.30;94.80
2202;DHT22;1107;48.654;9.250;2022-11-04T00:35:49;10.30;86.50
2202;DHT22;1107;48.654;9.250;2022-11-04T00:38:16;10.30;67.10
2202;DHT22;1107;48.654;9.250;2022-11-04T00:40:44;10.30;50.70
2202;DHT22;1107;48.654;9.250;2022-11-04T00:43:11;10.30;65.80
2202;DHT22;1107;48.654;9.250;2022-11-04T00:45:39;10.20;61.00
2202;DHT22;1107;48.654;9.250;2022-11-04T00:48:07;10.20;75.50
2202;DHT22;1107;48.654;9.250;2022-11-04T00:50:34;10.20;84.60
2202;DHT22;1107;48.654;9.250;2022-11-04T00:53:03;10.20;95.90
2202;DHT22;1107;48.654;9.250;2022-11-04T00:55:30;10.20;99.90
2202;DHT22;1107;48.654;9.250;2022-11-04T00:57:57;10.20;99.90
2202;DHT22;1107;48.654;9.250;2022-11-04T01:00:24;10.20;99.90
2202;DHT22;1107;48.654;9.250;2022-11-04T01:02:51;10.20;99.90
2202;DHT22;1107;48.654;9.250;2022-11-04T01:05:18;10.20;99.90
2202;DHT22;1107;48.654;9.250;2022-11-04T01:07:45;10.20;83.90
2202;DHT22;1107;48.654;9.250;2022-11-04T01:10:13;10.20;93.30
2202;DHT22;1107;48.654;9.250;2022-11-04T01:12:40;10.20;90.30
2202;DHT22;1107;48.654;9.250;2022-11-04T01:15:08;10.20;55.80
2202;DHT22;1107;48.654;9.250;2022-11-04T01:17:35;10.20;32.80
2202;DHT22;1107;48.654;9.250;2022-11-04T01:20:03;10.20;60.70
2202;DHT22;1107;48.654;9.250;2022-11-04T01:22:31;10.20;57.20
2202;DHT22;1107;48.654;9.250;2022-11-04T01:24:58;10.20;46.50
2202;DHT22;1107;48.654;9.250;2022-11-04T01:27:27;10.20;55.00
2202;DHT22;1107;48.654;9.250;2022-11-04T01:29:53;10.20;54.90
2202;DHT22;1107;48.654;9.250;2022-11-04T01:32:20;10.20;65.80
2202;DHT22;1107;48.654;9.250;2022-11-04T01:34:47;10.20;43.40
2202;DHT22;1107;48.654;9.250;2022-11-04T01:37:14;10.20;36.30
2202;DHT22;1107;48.654;9.250;2022-11-04T01:39:41;10.20;46.40
2202;DHT22;1107;48.654;9.250;2022-11-04T01:42:12;10.10;34.30
2202;DHT22;1107;48.654;9.250;2022-11-04T01:44:50;10.10;17.20
2202;DHT22;1107;48.654;9.250;2022-11-04T01:47:19;10.10;12.90
2202;DHT22;1107;48.654;9.250;2022-11-04T01:49:50;10.10;1.00
2202;DHT22;1107;48.654;9.250;2022-11-04T01:52:25;10.10;3.40
2202;DHT22;1107;48.654;9.250;2022-11-04T01:54:55;10.10;10.40
2202;DHT22;1107;48.654;9.250;2022-11-04T01:57:27;10.10;12.20
2202;DHT22;1107;48.654;9.250;2022-11-04T02:00:00;10.20;1.00
2202;DHT22;1107;48.654;9.250;2022-11-04T02:02:28;10.10;6.00
2202;DHT22;1107;48.654;9.250;2022-11-04T02:04:55;10.10;3.30
2202;DHT22;1107;48.654;9.250;2022-11-04T02:07:22;10.10;15.60
2202;DHT22;1107;48.654;9.250;2022-11-04T02:09:50;10.10;1.00
2202;DHT22;1107;48.654;9.250;2022-11-04T02:12:17;10.10;1.00
2202;DHT22;1107;48.654;9.250;2022-11-04T02:15:04;10.10;1.00
2202;DHT22;1107;48.654;9.250;2022-11-04T02:17:46;10.10;1.00
2202;DHT22;1107;48.654;9.250;2022-11-04T02:20:31;10.00;1.00
2202;DHT22;1107;48.654;9.250;2022-11-04T02:23:31;10.00;1.00
2202;DHT22;1107;48.654;9.250;2022-11-04T02:29:25;9.90;1.00
2202;DHT22;1107;48.654;9.250;2022-11-04T02:32:05;9.90;1.00
2202;DHT22;1107;48.654;9.250;2022-11-04T02:34:41;9.80;1.00
2202;DHT22;1107;48.654;9.250;2022-11-04T02:37:15;9.80;1.00
2202;DHT22;1107;48.654;9.250;2022-11-04T02:39:50;9.80;1.00
2202;DHT22;1107;48.654;9.250;2022-11-04T02:42:25;9.80;1.00
2202;DHT22;1107;48.654;9.250;2022-11-04T02:45:05;9.80;1.00
2202;DHT22;1107;48.654;9.250;2022-11-04T02:47:37;9.80;1.00
2202;DHT22;1107;48.654;9.250;2022-11-04T02:50:10;9.70;1.00
2202;DHT22;1107;48.654;9.250;2022-11-04T02:52:42;9.70;1.00
2202;DHT22;1107;48.654;9.250;2022-11-04T02:55:14;9.70;1.00
2202;DHT22;1107;48.654;9.250;2022-11-04T02:57:45;9.60;1.00
2202;DHT22;1107;48.654;9.250;2022-11-04T03:00:16;9.60;1.00
2202;DHT22;1107;48.654;9.250;2022-11-04T03:02:50;9.60;1.00
2202;DHT22;1107;48.654;9.250;2022-11-04T03:05:20;9.50;1.00
2202;DHT22;1107;48.654;9.250;2022-11-04T03:07:50;9.50;1.00
2202;DHT22;1107;48.654;9.250;2022-11-04T03:10:23;9.50;1.00
2202;DHT22;1107;48.654;9.250;2022-11-04T03:13:04;9.50;1.00
2202;DHT22;1107;48.654;9.250;2022-11-04T03:15:36;9.50;1.00
2202;DHT22;1107;48.654;9.250;2022-11-04T03:18:13;9.50;1.00
2202;DHT22;1107;48.654;9.250;2022-11-04T03:20:44;9.40;1.00
2202;DHT22;1107;48.654;9.250;2022-11-04T03:23:12;9.40;1.00
2202;DHT22;1107;48.654;9.250;2022-11-04T03:25:43;9.40;1.00
2202;DHT22;1107;48.654;9.250;2022-11-04T03:28:20;9.30;1.00
2202;DHT22;1107;48.654;9.250;2022-11-04T03:30:54;9.30;1.00
2202;DHT22;1107;48.654;9.250;2022-11-04T03:33:26;9.30;1.00
2202;DHT22;1107;48.654;9.250;2022-11-04T03:35:54;9.30;1.00
2202;DHT22;1107;48.654;9.250;2022-11-04T03:38:23;9.20;1.00
2202;DHT22;1107;48.654;9.250;2022-11-04T03:40:50;9.20;1.00
2202;DHT22;1107;48.654;9.250;2022-11-04T03:43:21;9.20;1.00
2202;DHT22;1107;48.654;9.250;2022-11-04T03:45:52;9.20;1.00
2202;DHT22;1107;48.654;9.250;2022-11-04T03:48:19;9.20;1.00
2202;DHT22;1107;48.654;9.250;2022-11-04T03:50:47;9.20;1.00
2202;DHT22;1107;48.654;9.250;2022-11-04T03:53:17;9.10;1.00
2202;DHT22;1107;48.654;9.250;2022-11-04T03:55:58;9.10;1.00
2202;DHT22;1107;48.654;9.250;2022-11-04T03:58:34;9.10;1.00
2202;DHT22;1107;48.654;9.250;2022-11-04T04:01:11;9.10;1.00
2202;DHT22;1107;48.654;9.250;2022-11-04T04:03:49;9.10;1.00
2202;DHT22;1107;48.654;9.250;2022-11-04T04:06:22;9.10;1.00
2202;DHT22;1107;48.654;9.250;2022-11-04T04:08:53;9.10;1.00
2202;DHT22;1107;48.654;9.250;2022-11-04T04:11:27;9.10;1.00
2202;DHT22;1107;48.654;9.250;2022-11-04T04:14:02;9.10;1.00
2202;DHT22;1107;48.654;9.250;2022-11-04T04:16:37;9.00;1.00
2202;DHT22;1107;48.654;9.250;2022-11-04T04:19:20;9.00;1.00
2202;DHT22;1107;48.654;9.250;2022-11-04T04:21:51;9.00;1.00
2202;DHT22;1107;48.654;9.250;2022-11-04T04:24:21;9.00;1.00
2202;DHT22;1107;48.654;9.250;2022-11-04T04:27:06;9.00;17.40
2202;DHT22;1107;48.654;9.250;2022-11-04T04:29:52;9.00;28.80
2202;DHT22;1107;48.654;9.250;2022-11-04T04:32:22;9.00;31.50
2202;DHT22;1107;48.654;9.250;2022-11-04T04:34:50;9.00;35.60
2202;DHT22;1107;48.654;9.250;2022-11-04T04:37:39;9.00;9.70
2202;DHT22;1107;48.654;9.250;2022-11-04T04:40:10;8.90;1.00
2202;DHT22;1107;48.654;9.250;2022-11-04T04:42:56;8.90;1.00
2202;DHT22;1107;48.654;9.250;2022-11-04T04:45:42;8.90;1.00
2202;DHT22;1107;48.654;9.250;2022-11-04T04:48:11;8.90;1.00
2202;DHT22;1107;48.654;9.250;2022-11-04T04:50:41;9.00;1.00
2202;DHT22;1107;48.654;9.250;2022-11-04T04:53:10;8.90;1.00
2202;DHT22;1107;48.654;9.250;2022-11-04T04:55:37;8.90;1.00
2202;DHT22;1107;48.654;9.250;2022-11-04T04:58:04;8.90;1.00
2202;DHT22;1107;48.654;9.250;2022-11-04T05:00:31;8.90;1.00
2202;DHT22;1107;48.654;9.250;2022-11-04T05:02:58;8.90;1.00
2202;DHT22;1107;48.654;9.250;2022-11-04T05:05:26;8.90;1.00
2202;DHT22;1107;48.654;9.250;2022-11-04T05:08:03;8.80;1.00
2202;DHT22;1107;48.654;9.250;2022-11-04T05:10:30;8.90;1.00
2202;DHT22;1107;48.654;9.250;2022-11-04T05:12:58;8.90;1.00
2202;DHT22;1107;48.654;9.250;2022-11-04T05:15:43;8.80;1.00
2202;DHT22;1107;48.654;9.250;2022-11-04T05:18:10;8.90;1.00
2202;DHT22;1107;48.654;9.250;2022-11-04T05:20:38;8.90;1.00
2202;DHT22;1107;48.654;9.250;2022-11-04T05:23:06;8.90;1.00
2202;DHT22;1107;48.654;9.250;2022-11-04T05:25:33;8.90;1.00
2202;DHT22;1107;48.654;9.250;2022-11-04T05:28:01;8.80;1.00
2202;DHT22;1107;48.654;9.250;2022-11-04T05:30:28;8.80;1.00
2202;DHT22;1107;48.654;9.250;2022-11-04T05:32:55;8.80;1.00
2202;DHT22;1107;48.654;9.250;2022-11-04T05:35:22;8.70;1.00
2202;DHT22;1107;48.654;9.250;2022-11-04T05:37:51;8.70;1.00
2202;DHT22;1107;48.654;9.250;2022-11-04T05:40:18;8.70;1.00
2202;DHT22;1107;48.654;9.250;2022-11-04T05:42:45;8.70;1.00
2202;DHT22;1107;48.654;9.250;2022-11-04T05:45:12;8.60;1.00
2202;DHT22;1107;48.654;9.250;2022-11-04T05:47:39;8.60;1.00
2202;DHT22;1107;48.654;9.250;2022-11-04T05:50:07;8.50;5.80
2202;DHT22;1107;48.654;9.250;2022-11-04T05:52:34;8.50;38.40
2202;DHT22;1107;48.654;9.250;2022-11-04T05:55:03;8.30;92.20
2202;DHT22;1107;48.654;9.250;2022-11-04T05:57:30;8.40;99.90
2202;DHT22;1107;48.654;9.250;2022-11-04T05:59:57;8.40;99.90
2202;DHT22;1107;48.654;9.250;2022-11-04T06:02:24;8.50;99.90
2202;DHT22;1107;48.654;9.250;2022-11-04T06:04:51;8.50;99.90
2202;DHT22;1107;48.654;9.250;2022-11-04T06:07:18;8.50;99.90
2202;DHT22;1107;48.654;9.250;2022-11-04T06:09:45;8.50;99.90
2202;DHT22;1107;48.654;9.250;2022-11-04T06:12:14;8.50;99.90
2202;DHT22;1107;48.654;9.250;2022-11-04T06:14:42;8.50;99.90
2202;DHT22;1107;48.654;9.250;2022-11-04T06:17:12;8.50;99.90
2202;DHT22;1107;48.654;9.250;2022-11-04T06:19:40;8.50;99.90
2202;DHT22;1107;48.654;9.250;2022-11-04T06:22:08;8.40;99.90
2202;DHT22;1107;48.654;9.250;2022-11-04T06:24:35;8.40;99.90
2202;DHT22;1107;48.654;9.250;2022-11-04T06:27:02;8.40;99.90
2202;DHT22;1107;48.654;9.250;2022-11-04T06:29:31;8.40;99.90
2202;DHT22;1107;48.654;9.250;2022-11-04T06:31:58;8.40;99.90
2202;DHT22;1107;48.654;9.250;2022-11-04T06:34:25;8.40;99.90
2202;DHT22;1107;48.654;9.250;2022-11-04T06:36:52;8.40;99.90
2202;DHT22;1107;48.654;9.250;2022-11-04T06:39:19;8.40;99.90
2202;DHT22;1107;48.654;9.250;2022-11-04T06:41:46;8.40;99.90
2202;DHT22;1107;48.654;9.250;2022-11-04T06:44:13;8.30;99.90
2202;DHT22;1107;48.654;9.250;2022-11-04T06:46:42;8.30;99.90
2202;DHT22;1107;48.654;9.250;2022-11-04T06:49:14;8.30;99.90
2202;DHT22;1107;48.654;9.250;2022-11-04T06:51:42;8.30;99.90
2202;DHT22;1107;48.654;9.250;2022-11-04T06:54:09;8.30;99.90
2202;DHT22;1107;48.654;9.250;2022-11-04T06:56:37;8.30;99.90
2202;DHT22;1107;48.654;9.250;2022-11-04T06:59:04;8.30;99.90
2202;DHT22;1107;48.654;9.250;2022-11-04T07:01:34;8.30;99.90
2202;DHT22;1107;48.654;9.250;2022-11-04T07:04:03;8.40;99.90
2202;DHT22;1107;48.654;9.250;2022-11-04T07:06:31;8.40;99.90
2202;DHT22;1107;48.654;9.250;2022-11-04T07:08:59;8.40;99.90
2202;DHT22;1107;48.654;9.250;2022-11-04T07:11:28;8.40;99.90
2202;DHT22;1107;48.654;9.250;2022-11-04T07:13:56;8.40;99.90
2202;DHT22;1107;48.654;9.250;2022-11-04T07:16:24;8.40;99.90
2202;DHT22;1107;48.654;9.250;2022-11-04T07:18:53;8.40;99.90
2202;DHT22;1107;48.654;9.250;2022-11-04T07:21:22;8.40;99.90
2202;DHT22;1107;48.654;9.250;2022-11-04T07:23:49;8.50;99.90
2202;DHT22;1107;48.654;9.250;2022-11-04T07:26:16;8.50;99.90
2202;DHT22;1107;48.654;9.250;2022-11-04T07:28:43;8.50;99.90
2202;DHT22;1107;48.654;9.250;2022-11-04T07:31:11;8.50;94.70
2202;DHT22;1107;48.654;9.250;2022-11-04T07:33:38;8.60;44.40
2202;DHT22;1107;48.654;9.250;2022-11-04T07:36:08;8.60;18.70
2202;DHT22;1107;48.654;9.250;2022-11-04T07:38:37;8.60;6.40
2202;DHT22;1107;48.654;9.250;2022-11-04T07:41:04;8.70;5.50
2202;DHT22;1107;48.654;9.250;2022-11-04T07:43:32;8.70;1.00
2202;DHT22;1107;48.654;9.250;2022-11-04T07:46:00;8.80;1.00
2202;DHT22;1107;48.654;9.250;2022-11-04T07:48:27;8.90;1.00
2202;DHT22;1107;48.654;9.250;2022-11-04T07:50:55;8.90;1.00
2202;DHT22;1107;48.654;9.250;2022-11-04T07:53:22;8.90;1.00
2202;DHT22;1107;48.654;9.250;2022-11-04T07:55:51;9.00;1.00
2202;DHT22;1107;48.654;9.250;2022-11-04T07:58:18;9.10;1.00
2202;DHT22;1107;48.654;9.250;2022-11-04T08:00:46;9.20;1.00
2202;DHT22;1107;48.654;9.250;2022-11-04T08:03:13;9.10;1.00
2202;DHT22;1107;48.654;9.250;2022-11-04T08:05:40;9.20;1.00
2202;DHT22;1107;48.654;9.250;2022-11-04T08:08:07;9.20;1.00
2202;DHT22;1107;48.654;9.250;2022-11-04T08:10:34;9.20;1.00
2202;DHT22;1107;48.654;9.250;2022-11-04T08:13:02;9.30;1.00
2202;DHT22;1107;48.654;9.250;2022-11-04T08:15:29;9.40;1.00
2202;DHT22;1107;48.654;9.250;2022-11-04T08:17:56;9.50;1.00
2202;DHT22;1107;48.654;9.250;2022-11-04T08:20:23;9.70;1.00
2202;DHT22;1107;48.654;9.250;2022-11-04T08:22:50;9.70;99.90
2202;DHT22;1107;48.654;9.250;2022-11-04T08:25:17;9.80;99.90
2202;DHT22;1107;48.654;9.250;2022-11-04T08:27:44;9.80;1.00
2202;DHT22;1107;48.654;9.250;2022-11-04T08:30:12;9.90;1.00
2202;DHT22;1107;48.654;9.250;2022-11-04T08:32:39;10.00;1.00
2202;DHT22;1107;48.654;9.250;2022-11-04T08:35:07;10.00;99.90
2202;DHT22;1107;48.654;9.250;2022-11-04T08:37:35;10.10;99.90
2202;DHT22;1107;48.654;9.250;2022-11-04T08:40:04;10.20;99.90
2202;DHT22;1107;48.654;9.250;2022-11-04T08:42:31;10.40;99.90
2202;DHT22;1107;48.654;9.250;2022-11-04T08:44:59;10.50;99.90
2202;DHT22;1107;48.654;9.250;2022-11-04T08:47:27;10.50;99.90
2202;DHT22;1107;48.654;9.250;2022-11-04T08:49:54;10.50;1.00
2202;DHT22;1107;48.654;9.250;2022-11-04T08:52:21;10.50;1.00
2202;DHT22;1107;48.654;9.250;2022-11-04T08:54:48;10.30;1.00
2202;DHT22;1107;48.654;9.250;2022-11-04T08:57:15;10.20;1.00
2202;DHT22;1107;48.654;9.250;2022-11-04T08:59:42;10.10;99.90
2202;DHT22;1107;48.654;9.250;2022-11-04T09:02:12;10.10;99.90
2202;DHT22;1107;48.654;9.250;2022-11-04T09:04:41;10.00;99.90
2202;DHT22;1107;48.654;9.250;2022-11-04T09:07:08;9.90;1.00
2202;DHT22;1107;48.654;9.250;2022-11-04T09:09:36;9.90;1.00
2202;DHT22;1107;48.654;9.250;2022-11-04T09:12:07;9.90;1.00
2202;DHT22;1107;48.654;9.250;2022-11-04T09:14:34;9.90;1.00
2202;DHT22;1107;48.654;9.250;2022-11-04T09:17:01;10.00;1.00
2202;DHT22;1107;48.654;9.250;2022-11-04T09:19:28;10.10;1.00
2202;DHT22;1107;48.654;9.250;2022-11-04T09:21:58;10.20;99.90
2202;DHT22;1107;48.654;9.250;2022-11-04T09:24:25;10.10;1.00
2202;DHT22;1107;48.654;9.250;2022-11-04T09:26:52;10.10;1.00
2202;DHT22;1107;48.654;9.250;2022-11-04T09:29:19;10.10;99.90
2202;DHT22;1107;48.654;9.250;2022-11-04T09:31:46;10.20;99.90
2202;DHT22;1107;48.654;9.250;2022-11-04T09:34:15;10.30;99.90
2202;DHT22;1107;48.654;9.250;2022-11-04T09:36:42;10.40;1.00
2202;DHT22;1107;48.654;9.250;2022-11-04T09:39:12;10.30;99.90
2202;DHT22;1107;48.654;9.250;2022-11-04T09:42:05;10.50;1.00
2202;DHT22;1107;48.654;9.250;2022-11-04T09:44:42;10.50;1.00
2202;DHT22;1107;48.654;9.250;2022-11-04T09:47:11;10.60;1.00
2202;DHT22;1107;48.654;9.250;2022-11-04T09:49:40;10.70;76.10
2202;DHT22;1107;48.654;9.250;2022-11-04T09:52:15;10.80;99.90
2202;DHT22;1107;48.654;9.250;2022-11-04T09:54:50;11.00;99.90
2202;DHT22;1107;48.654;9.250;2022-11-04T09:57:19;11.30;99.90
2202;DHT22;1107;48.654;9.250;2022-11-04T09:59:46;11.60;1.00
2202;DHT22;1107;48.654;9.250;2022-11-04T10:02:29;11.90;1.00
2202;DHT22;1107;48.654;9.250;2022-11-04T10:05:06;12.20;99.90
2202;DHT22;1107;48.654;9.250;2022-11-04T10:07:56;12.50;27.50
2202;DHT22;1107;48.654;9.250;2022-11-04T10:10:34;13.20;1.00
2202;DHT22;1107;48.654;9.250;2022-11-04T10:13:16;13.80;99.90
2202;DHT22;1107;48.654;9.250;2022-11-04T10:16:21;14.00;34.90
2202;DHT22;1107;48.654;9.250;2022-11-04T10:19:07;13.90;31.80
2202;DHT22;1107;48.654;9.250;2022-11-04T10:21:43;14.00;1.00
2202;DHT22;1107;48.654;9.250;2022-11-04T10:24:18;13.90;1.00
2202;DHT22;1107;48.654;9.250;2022-11-04T10:26:51;13.80;99.90
2202;DHT22;1107;48.654;9.250;2022-11-04T10:29:27;14.20;46.10
2202;DHT22;1107;48.654;9.250;2022-11-04T10:31:57;14.30;1.00
2202;DHT22;1107;48.654;9.250;2022-11-04T10:34:33;13.80;1.00
2202;DHT22;1107;48.654;9.250;2022-11-04T10:37:01;14.00;36.50
2202;DHT22;1107;48.654;9.250;2022-11-04T10:39:30;14.00;33.70
2202;DHT22;1107;48.654;9.250;2022-11-04T10:41:59;13.70;1.00
2202;DHT22;1107;48.654;9.250;2022-11-04T10:44:30;14.40;1.00
2202;DHT22;1107;48.654;9.250;2022-11-04T10:47:06;14.90;1.00
2202;DHT22;1107;48.654;9.250;2022-11-04T10:50:01;15.20;1.00
2202;DHT22;1107;48.654;9.250;2022-11-04T10:52:32;15.30;1.00
2202;DHT22;1107;48.654;9.250;2022-11-04T10:55:00;15.10;1.00
2202;DHT22;1107;48.654;9.250;2022-11-04T10:57:29;14.80;1.00
2202;DHT22;1107;48.654;9.250;2022-11-04T10:59:58;14.30;1.00
2202;DHT22;1107;48.654;9.250;2022-11-04T11:02:43;14.50;1.00
2202;DHT22;1107;48.654;9.250;2022-11-04T11:05:27;15.00;99.90
2202;DHT22;1107;48.654;9.250;2022-11-04T11:07:56;15.10;99.90
2202;DHT22;1107;48.654;9.250;2022-11-04T11:10:25;15.00;99.90
2202;DHT22;1107;48.654;9.250;2022-11-04T11:12:55;14.50;1.00
2202;DHT22;1107;48.654;9.250;2022-11-04T11:15:30;14.20;1.00
2202;DHT22;1107;48.654;9.250;2022-11-04T11:18:11;13.70;1.00
2202;DHT22;1107;48.654;9.250;2022-11-04T11:20:41;13.30;1.00
2202;DHT22;1107;48.654;9.250;2022-11-04T11:23:33;12.90;1.00
2202;DHT22;1107;48.654;9.250;2022-11-04T11:26:02;12.70;1.00
2202;DHT22;1107;48.654;9.250;2022-11-04T11:28:31;12.50;1.00
2202;DHT22;1107;48.654;9.250;2022-11-04T11:31:04;12.40;1.00
2202;DHT22;1107;48.654;9.250;2022-11-04T11:33:39;12.50;1.00
2202;DHT22;1107;48.654;9.250;2022-11-04T11:36:13;12.40;1.00
2202;DHT22;1107;48.654;9.250;2022-11-04T11:38:52;12.70;1.00
2202;DHT22;1107;48.654;9.250;2022-11-04T11:41:20;13.00;1.00
2202;DHT22;1107;48.654;9.250;2022-11-04T11:43:55;13.30;1.00
2202;DHT22;1107;48.654;9.250;2022-11-04T11:46:24;13.40;1.00
2202;DHT22;1107;48.654;9.250;2022-11-04T11:48:53;13.40;1.00
2202;DHT22;1107;48.654;9.250;2022-11-04T11:51:27;13.40;1.00
2202;DHT22;1107;48.654;9.250;2022-11-04T11:56:46;13.20;1.00
2202;DHT22;1107;48.654;9.250;2022-11-04T11:59:27;13.00;1.00
2202;DHT22;1107;48.654;9.250;2022-11-04T12:02:02;12.80;1.00
2202;DHT22;1107;48.654;9.250;2022-11-04T12:04:36;12.70;1.00
2202;DHT22;1107;48.654;9.250;2022-11-04T12:07:11;12.80;1.00
2202;DHT22;1107;48.654;9.250;2022-11-04T12:09:45;12.80;1.00
2202;DHT22;1107;48.654;9.250;2022-11-04T12:12:23;13.00;1.00
2202;DHT22;1107;48.654;9.250;2022-11-04T12:15:04;13.10;1.00
2202;DHT22;1107;48.654;9.250;2022-11-04T12:17:43;12.90;1.00
2202;DHT22;1107;48.654;9.250;2022-11-04T12:20:23;12.90;1.00
2202;DHT22;1107;48.654;9.250;2022-11-04T12:22:57;12.70;1.00
2202;DHT22;1107;48.654;9.250;2022-11-04T12:25:32;12.70;1.00
2202;DHT22;1107;48.654;9.250;2022-11-04T12:28:08;12.70;1.00
2202;DHT22;1107;48.654;9.250;2022-11-04T12:30:49;12.80;1.00
2202;DHT22;1107;48.654;9.250;2022-11-04T12:33:24;12.90;1.00
2202;DHT22;1107;48.654;9.250;2022-11-04T12:36:08;12.80;1.00
2202;DHT22;1107;48.654;9.250;2022-11-04T12:38:48;12.80;1.00
2202;DHT22;1107;48.654;9.250;2022-11-04T12:41:24;12.60;1.00
2202;DHT22;1107;48.654;9.250;2022-11-04T12:44:00;12.70;1.00
2202;DHT22;1107;48.654;9.250;2022-11-04T12:46:37;12.70;1.00
2202;DHT22;1107;48.654;9.250;2022-11-04T12:52:20;13.00;1.00
2202;DHT22;1107;48.654;9.250;2022-11-04T12:55:01;13.00;1.00
2202;DHT22;1107;48.654;9.250;2022-11-04T12:57:35;13.00;1.00
2202;DHT22;1107;48.654;9.250;2022-11-04T13:00:09;13.00;1.00
2202;DHT22;1107;48.654;9.250;2022-11-04T13:02:43;13.00;1.00
2202;DHT22;1107;48.654;9.250;2022-11-04T13:05:26;13.20;1.00
2202;DHT22;1107;48.654;9.250;2022-11-04T13:07:57;13.40;1.00
2202;DHT22;1107;48.654;9.250;2022-11-04T13:10:41;13.60;1.00
2202;DHT22;1107;48.654;9.250;2022-11-04T13:13:11;13.70;1.00
2202;DHT22;1107;48.654;9.250;2022-11-04T13:15:44;13.80;1.00
2202;DHT22;1107;48.654;9.250;2022-11-04T13:18:17;13.80;1.00
2202;DHT22;1107;48.654;9.250;2022-11-04T13:20:49;13.90;1.00
2202;DHT22;1107;48.654;9.250;2022-11-04T13:23:23;13.90;1.00
2202;DHT22;1107;48.654;9.250;2022-11-04T13:25:52;13.90;1.00
2202;DHT22;1107;48.654;9.250;2022-11-04T13:28:21;14.00;1.00
2202;DHT22;1107;48.654;9.250;2022-11-04T13:30:58;14.20;1.00
2202;DHT22;1107;48.654;9.250;2022-11-04T13:33:36;14.60;1.00
2202;DHT22;1107;48.654;9.250;2022-11-04T13:36:13;16.60;1.00
2202;DHT22;1107;48.654;9.250;2022-11-04T13:38:48;17.60;99.90
2202;DHT22;1107;48.654;9.250;2022-11-04T13:41:36;19.70;99.90
2202;DHT22;1107;48.654;9.250;2022-11-04T13:44:13;20.30;99.90
2202;DHT22;1107;48.654;9.250;2022-11-04T13:46:47;20.20;99.90
2202;DHT22;1107;48.654;9.250;2022-11-04T13:49:20;19.20;99.90
2202;DHT22;1107;48.654;9.250;2022-11-04T13:52:03;18.40;99.90
2202;DHT22;1107;48.654;9.250;2022-11-04T13:54:34;17.50;99.90
2202;DHT22;1107;48.654;9.250;2022-11-04T13:57:06;17.00;99.90
2202;DHT22;1107;48.654;9.250;2022-11-04T13:59:34;16.70;99.90
2202;DHT22;1107;48.654;9.250;2022-11-04T14:05:46;18.70;99.90
2202;DHT22;1107;48.654;9.250;2022-11-04T14:08:26;17.90;99.90
2202;DHT22;1107;48.654;9.250;2022-11-04T14:11:05;17.10;99.90
2202;DHT22;1107;48.654;9.250;2022-11-04T14:13:55;16.50;99.90
2202;DHT22;1107;48.654;9.250;2022-11-04T14:16:43;15.90;99.90
2202;DHT22;1107;48.654;9.250;2022-11-04T14:22:35;15.10;99.90
2202;DHT22;1107;48.654;9.250;2022-11-04T14:25:25;14.80;99.90
2202;DHT22;1107;48.654;9.250;2022-11-04T14:27:54;14.30;1.00
2202;DHT22;1107;48.654;9.250;2022-11-04T14:30:49;14.00;1.00
2202;DHT22;1107;48.654;9.250;2022-11-04T14:36:33;13.40;99.90
2202;DHT22;1107;48.654;9.250;2022-11-04T14:39:05;13.20;1.00
2202;DHT22;1107;48.654;9.250;2022-11-04T14:41:51;13.00;1.00
2202;DHT22;1107;48.654;9.250;2022-11-04T14:44:23;12.90;99.90
2202;DHT22;1107;48.654;9.250;2022-11-04T14:46:54;12.80;99.90
2202;DHT22;1107;48.654;9.250;2022-11-04T14:49:39;12.70;99.90
2202;DHT22;1107;48.654;9.250;2022-11-04T14:52:19;12.60;1.00
2202;DHT22;1107;48.654;9.250;2022-11-04T14:54:48;12.40;99.90
2202;DHT22;1107;48.654;9.250;2022-11-04T14:57:20;12.40;1.00
2202;DHT22;1107;48.654;9.250;2022-11-04T14:59:47;12.40;1.00
2202;DHT22;1107;48.654;9.250;2022-11-04T15:02:18;12.70;1.00
2202;DHT22;1107;48.654;9.250;2022-11-04T15:04:49;13.30;1.00
2202;DHT22;1107;48.654;9.250;2022-11-04T15:07:35;13.10;6.70
2202;DHT22;1107;48.654;9.250;2022-11-04T15:10:21;12.80;1.00
2202;DHT22;1107;48.654;9.250;2022-11-04T15:12:49;12.60;99.90
2202;DHT22;1107;48.654;9.250;2022-11-04T15:15:28;12.40;1.00
2202;DHT22;1107;48.654;9.250;2022-11-04T15:17:58;12.20;18.10
2202;DHT22;1107;48.654;9.250;2022-11-04T15:20:28;12.00;99.90
2202;DHT22;1107;48.654;9.250;2022-11-04T15:22:56;11.90;1.00
2202;DHT22;1107;48.654;9.250;2022-11-04T15:25:25;11.80;1.00
2202;DHT22;1107;48.654;9.250;2022-11-04T15:27:54;11.70;63.40
2202;DHT22;1107;48.654;9.250;2022-11-04T15:30:23;11.60;1.00
2202;DHT22;1107;48.654;9.250;2022-11-04T15:32:55;11.50;99.90
2202;DHT22;1107;48.654;9.250;2022-11-04T15:35:23;11.40;99.90
2202;DHT22;1107;48.654;9.250;2022-11-04T15:37:50;11.30;1.00
2202;DHT22;1107;48.654;9.250;2022-11-04T15:40:18;11.30;99.90
2202;DHT22;1107;48.654;9.250;2022-11-04T15:42:47;11.20;1.00
2202;DHT22;1107;48.654;9.250;2022-11-04T15:45:31;11.20;1.00
2202;DHT22;1107;48.654;9.250;2022-11-04T15:48:27;11.10;99.90
2202;DHT22;1107;48.654;9.250;2022-11-04T15:51:14;11.10;1.00
2202;DHT22;1107;48.654;9.250;2022-11-04T15:53:50;11.10;52.70
2202;DHT22;1107;48.654;9.250;2022-11-04T15:56:22;11.00;1.00
2202;DHT22;1107;48.654;9.250;2022-11-04T15:58:51;11.00;1.00
2202;DHT22;1107;48.654;9.250;2022-11-04T16:01:19;10.90;99.90
2202;DHT22;1107;48.654;9.250;2022-11-04T16:03:51;10.80;99.90
2202;DHT22;1107;48.654;9.250;2022-11-04T16:06:34;10.70;1.00
2202;DHT22;1107;48.654;9.250;2022-11-04T16:09:05;10.60;1.00
2202;DHT22;1107;48.654;9.250;2022-11-04T16:11:32;10.60;1.00
2202;DHT22;1107;48.654;9.250;2022-11-04T16:14:23;10.70;99.90
2202;DHT22;1107;48.654;9.250;2022-11-04T16:16:52;10.60;78.30
2202;DHT22;1107;48.654;9.250;2022-11-04T16:19:22;10.50;1.00
2202;DHT22;1107;48.654;9.250;2022-11-04T16:21:58;10.60;99.90
2202;DHT22;1107;48.654;9.250;2022-11-04T16:24:26;10.60;1.00
2202;DHT22;1107;48.654;9.250;2022-11-04T16:26:56;10.70;1.00
2202;DHT22;1107;48.654;9.250;2022-11-04T16:29:26;10.70;99.90
2202;DHT22;1107;48.654;9.250;2022-11-04T16:32:11;10.70;99.90
2202;DHT22;1107;48.654;9.250;2022-11-04T16:34:40;10.70;1.00
2202;DHT22;1107;48.654;9.250;2022-11-04T16:37:08;10.60;1.00
2202;DHT22;1107;48.654;9.250;2022-11-04T16:39:35;10.50;1.00
2202;DHT22;1107;48.654;9.250;2022-11-04T16:42:03;10.40;1.00
2202;DHT22;1107;48.654;9.250;2022-11-04T16:44:32;10.20;99.90
2202;DHT22;1107;48.654;9.250;2022-11-04T16:46:59;10.10;1.00
2202;DHT22;1107;48.654;9.250;2022-11-04T16:49:26;10.00;1.00
2202;DHT22;1107;48.654;9.250;2022-11-04T16:51:55;9.90;1.00
2202;DHT22;1107;48.654;9.250;2022-11-04T16:54:26;9.90;84.00
2202;DHT22;1107;48.654;9.250;2022-11-04T16:56:53;9.90;99.90
2202;DHT22;1107;48.654;9.250;2022-11-04T16:59:20;9.80;1.00
2202;DHT22;1107;48.654;9.250;2022-11-04T17:01:49;9.80;1.00
2202;DHT22;1107;48.654;9.250;2022-11-04T17:04:16;9.80;1.00
2202;DHT22;1107;48.654;9.250;2022-11-04T17:06:43;9.80;1.00
2202;DHT22;1107;48.654;9.250;2022-11-04T17:09:19;9.80;1.00